sensor_id;sensor_type;location;lat;lon;timestamp;P1;durP1;ratioP1;P2;durP2;ratioP2
20076;SDS011;12348;42.710;23.378;2023-04-24T00:01:12;10.70;;;5.23;;
20076;SDS011;12348;42.710;23.378;2023-04-24T00:03:41;8.60;;;5.10;;
20076;SDS011;12348;42.710;23.378;2023-04-24T00:06:08;7.17;;;5.67;;
20076;SDS011;12348;42.710;23.378;2023-04-24T00:08:35;13.10;;;5.70;;
20076;SDS011;12348;42.710;23.378;2023-04-24T00:11:02;7.50;;;4.53;;
20076;SDS011;12348;42.710;23.378;2023-04-24T00:13:28;10.60;;;5.30;;
20076;SDS011;12348;42.710;23.378;2023-04-24T00:15:55;6.97;;;5.57;;
20076;SDS011;12348;42.710;23.378;2023-04-24T00:18:22;8.17;;;5.77;;
20076;SDS011;12348;42.710;23.378;2023-04-24T00:20:51;7.67;;;5.70;;
20076;SDS011;12348;42.710;23.378;2023-04-24T00:23:17;9.37;;;5.27;;
20076;SDS011;12348;42.710;23.378;2023-04-24T00:25:44;14.47;;;5.77;;
20076;SDS011;12348;42.710;23.378;2023-04-24T00:28:11;13.07;;;6.67;;
20076;SDS011;12348;42.710;23.378;2023-04-24T00:30:38;7.40;;;5.57;;
20076;SDS011;12348;42.710;23.378;2023-04-24T00:33:05;7.93;;;5.13;;
20076;SDS011;12348;42.710;23.378;2023-04-24T00:35:31;10.43;;;5.50;;
20076;SDS011;12348;42.710;23.378;2023-04-24T00:38:00;11.40;;;5.83;;
20076;SDS011;12348;42.710;23.378;2023-04-24T00:40:26;9.83;;;5.70;;
20076;SDS011;12348;42.710;23.378;2023-04-24T00:42:54;11.13;;;6.17;;
20076;SDS011;12348;42.710;23.378;2023-04-24T00:45:21;10.97;;;5.90;;
20076;SDS011;12348;42.710;23.378;2023-04-24T00:47:48;14.37;;;5.43;;
20076;SDS011;12348;42.710;23.378;2023-04-24T00:50:15;9.73;;;5.13;;
20076;SDS011;12348;42.710;23.378;2023-04-24T00:52:42;6.53;;;5.17;;
20076;SDS011;12348;42.710;23.378;2023-04-24T00:55:10;10.77;;;5.37;;
20076;SDS011;12348;42.710;23.378;2023-04-24T00:57:37;11.03;;;5.97;;
20076;SDS011;12348;42.710;23.378;2023-04-24T01:00:05;8.77;;;5.37;;
20076;SDS011;12348;42.710;23.378;2023-04-24T01:02:36;9.23;;;5.90;;
20076;SDS011;12348;42.710;23.378;2023-04-24T01:05:05;7.67;;;5.73;;
20076;SDS011;12348;42.710;23.378;2023-04-24T01:07:33;6.27;;;4.97;;
20076;SDS011;12348;42.710;23.378;2023-04-24T01:10:01;6.00;;;4.93;;
20076;SDS011;12348;42.710;23.378;2023-04-24T01:12:29;9.40;;;4.87;;
20076;SDS011;12348;42.710;23.378;2023-04-24T01:14:56;8.97;;;6.27;;
20076;SDS011;12348;42.710;23.378;2023-04-24T01:17:24;9.13;;;4.93;;
20076;SDS011;12348;42.710;23.378;2023-04-24T01:19:51;9.27;;;5.90;;
20076;SDS011;12348;42.710;23.378;2023-04-24T01:22:20;7.23;;;5.17;;
20076;SDS011;12348;42.710;23.378;2023-04-24T01:24:46;11.50;;;5.77;;
20076;SDS011;12348;42.710;23.378;2023-04-24T01:27:13;10.23;;;6.73;;
20076;SDS011;12348;42.710;23.378;2023-04-24T01:29:40;8.57;;;5.93;;
20076;SDS011;12348;42.710;23.378;2023-04-24T01:32:07;8.77;;;5.50;;
20076;SDS011;12348;42.710;23.378;2023-04-24T01:34:34;8.87;;;6.20;;
20076;SDS011;12348;42.710;23.378;2023-04-24T01:37:01;11.40;;;5.83;;
20076;SDS011;12348;42.710;23.378;2023-04-24T01:39:29;13.93;;;5.83;;
20076;SDS011;12348;42.710;23.378;2023-04-24T01:41:56;7.10;;;5.50;;
20076;SDS011;12348;42.710;23.378;2023-04-24T01:44:23;8.13;;;5.27;;
20076;SDS011;12348;42.710;23.378;2023-04-24T01:46:50;8.10;;;5.83;;
20076;SDS011;12348;42.710;23.378;2023-04-24T01:49:18;7.07;;;5.63;;
20076;SDS011;12348;42.710;23.378;2023-04-24T01:51:45;11.60;;;5.60;;
20076;SDS011;12348;42.710;23.378;2023-04-24T01:54:12;7.53;;;5.70;;
20076;SDS011;12348;42.710;23.378;2023-04-24T01:56:41;8.80;;;5.60;;
20076;SDS011;12348;42.710;23.378;2023-04-24T01:59:09;9.57;;;6.00;;
20076;SDS011;12348;42.710;23.378;2023-04-24T02:01:37;7.37;;;5.13;;
20076;SDS011;12348;42.710;23.378;2023-04-24T02:04:04;8.23;;;5.47;;
20076;SDS011;12348;42.710;23.378;2023-04-24T02:06:32;10.47;;;5.50;;
20076;SDS011;12348;42.710;23.378;2023-04-24T02:08:59;10.03;;;5.40;;
20076;SDS011;12348;42.710;23.378;2023-04-24T02:11:27;13.43;;;5.60;;
20076;SDS011;12348;42.710;23.378;2023-04-24T02:13:55;10.50;;;5.23;;
20076;SDS011;12348;42.710;23.378;2023-04-24T02:16:22;13.20;;;6.00;;
20076;SDS011;12348;42.710;23.378;2023-04-24T02:18:49;13.37;;;5.70;;
20076;SDS011;12348;42.710;23.378;2023-04-24T02:21:16;10.90;;;6.23;;
20076;SDS011;12348;42.710;23.378;2023-04-24T02:23:43;6.97;;;5.43;;
20076;SDS011;12348;42.710;23.378;2023-04-24T02:26:11;14.47;;;6.67;;
20076;SDS011;12348;42.710;23.378;2023-04-24T02:28:38;9.40;;;6.23;;
20076;SDS011;12348;42.710;23.378;2023-04-24T02:31:06;10.40;;;6.07;;
20076;SDS011;12348;42.710;23.378;2023-04-24T02:33:33;7.40;;;5.80;;
20076;SDS011;12348;42.710;23.378;2023-04-24T02:36:00;8.60;;;6.03;;
20076;SDS011;12348;42.710;23.378;2023-04-24T02:38:27;14.23;;;6.23;;
20076;SDS011;12348;42.710;23.378;2023-04-24T02:40:54;8.90;;;5.53;;
20076;SDS011;12348;42.710;23.378;2023-04-24T02:43:21;8.03;;;5.80;;
20076;SDS011;12348;42.710;23.378;2023-04-24T02:45:48;8.07;;;5.20;;
20076;SDS011;12348;42.710;23.378;2023-04-24T02:48:16;11.57;;;5.77;;
20076;SDS011;12348;42.710;23.378;2023-04-24T02:50:43;9.63;;;5.13;;
20076;SDS011;12348;42.710;23.378;2023-04-24T02:53:11;12.07;;;6.27;;
20076;SDS011;12348;42.710;23.378;2023-04-24T02:55:38;10.00;;;7.07;;
20076;SDS011;12348;42.710;23.378;2023-04-24T02:58:05;13.20;;;6.53;;
20076;SDS011;12348;42.710;23.378;2023-04-24T03:00:32;9.67;;;5.93;;
20076;SDS011;12348;42.710;23.378;2023-04-24T03:02:59;10.83;;;6.00;;
20076;SDS011;12348;42.710;23.378;2023-04-24T03:05:27;9.90;;;6.03;;
20076;SDS011;12348;42.710;23.378;2023-04-24T03:07:54;9.53;;;6.10;;
20076;SDS011;12348;42.710;23.378;2023-04-24T03:10:20;9.90;;;6.40;;
20076;SDS011;12348;42.710;23.378;2023-04-24T03:12:48;7.37;;;5.73;;
20076;SDS011;12348;42.710;23.378;2023-04-24T03:15:15;10.67;;;4.93;;
20076;SDS011;12348;42.710;23.378;2023-04-24T03:17:42;10.07;;;6.27;;
20076;SDS011;12348;42.710;23.378;2023-04-24T03:20:09;11.63;;;5.97;;
20076;SDS011;12348;42.710;23.378;2023-04-24T03:22:37;11.83;;;6.57;;
20076;SDS011;12348;42.710;23.378;2023-04-24T03:25:04;11.63;;;6.13;;
20076;SDS011;12348;42.710;23.378;2023-04-24T03:27:33;13.03;;;6.63;;
20076;SDS011;12348;42.710;23.378;2023-04-24T03:30:00;15.27;;;6.63;;
20076;SDS011;12348;42.710;23.378;2023-04-24T03:32:27;16.97;;;6.53;;
20076;SDS011;12348;42.710;23.378;2023-04-24T03:34:54;9.13;;;6.40;;
20076;SDS011;12348;42.710;23.378;2023-04-24T03:37:20;13.50;;;6.63;;
20076;SDS011;12348;42.710;23.378;2023-04-24T03:39:49;9.77;;;6.13;;
20076;SDS011;12348;42.710;23.378;2023-04-24T03:42:16;12.93;;;6.70;;
20076;SDS011;12348;42.710;23.378;2023-04-24T03:44:43;8.67;;;6.40;;
20076;SDS011;12348;42.710;23.378;2023-04-24T03:47:10;18.23;;;7.30;;
20076;SDS011;12348;42.710;23.378;2023-04-24T03:49:36;20.73;;;8.40;;
20076;SDS011;12348;42.710;23.378;2023-04-24T03:52:03;15.23;;;9.13;;
20076;SDS011;12348;42.710;23.378;2023-04-24T03:54:30;11.27;;;8.03;;
20076;SDS011;12348;42.710;23.378;2023-04-24T03:56:58;12.10;;;7.50;;
20076;SDS011;12348;42.710;23.378;2023-04-24T03:59:25;18.57;;;8.17;;
20076;SDS011;12348;42.710;23.378;2023-04-24T04:01:52;21.97;;;9.43;;
20076;SDS011;12348;42.710;23.378;2023-04-24T04:04:18;17.87;;;7.83;;
20076;SDS011;12348;42.710;23.378;2023-04-24T04:06:45;15.23;;;8.53;;
20076;SDS011;12348;42.710;23.378;2023-04-24T04:09:12;14.27;;;8.60;;
20076;SDS011;12348;42.710;23.378;2023-04-24T04:11:40;16.97;;;8.57;;
20076;SDS011;12348;42.710;23.378;2023-04-24T04:14:08;15.43;;;7.47;;
20076;SDS011;12348;42.710;23.378;2023-04-24T04:16:35;15.60;;;7.90;;
20076;SDS011;12348;42.710;23.378;2023-04-24T04:19:02;18.53;;;9.77;;
20076;SDS011;12348;42.710;23.378;2023-04-24T04:21:30;18.47;;;9.20;;
20076;SDS011;12348;42.710;23.378;2023-04-24T04:23:57;14.03;;;9.00;;
20076;SDS011;12348;42.710;23.378;2023-04-24T04:26:24;14.10;;;8.57;;
20076;SDS011;12348;42.710;23.378;2023-04-24T04:28:50;15.03;;;7.93;;
20076;SDS011;12348;42.710;23.378;2023-04-24T04:31:20;17.60;;;8.33;;
20076;SDS011;12348;42.710;23.378;2023-04-24T04:33:48;13.67;;;9.40;;
20076;SDS011;12348;42.710;23.378;2023-04-24T04:36:15;20.00;;;9.90;;
20076;SDS011;12348;42.710;23.378;2023-04-24T04:38:42;22.90;;;10.33;;
20076;SDS011;12348;42.710;23.378;2023-04-24T04:41:09;15.87;;;10.40;;
20076;SDS011;12348;42.710;23.378;2023-04-24T04:43:37;13.27;;;9.17;;
20076;SDS011;12348;42.710;23.378;2023-04-24T04:46:05;12.37;;;8.27;;
20076;SDS011;12348;42.710;23.378;2023-04-24T04:48:35;15.60;;;9.30;;
20076;SDS011;12348;42.710;23.378;2023-04-24T04:51:01;17.40;;;8.97;;
20076;SDS011;12348;42.710;23.378;2023-04-24T04:53:28;15.13;;;8.07;;
20076;SDS011;12348;42.710;23.378;2023-04-24T04:55:56;11.60;;;7.97;;
20076;SDS011;12348;42.710;23.378;2023-04-24T04:58:22;16.97;;;8.83;;
20076;SDS011;12348;42.710;23.378;2023-04-24T05:00:49;36.40;;;11.47;;
20076;SDS011;12348;42.710;23.378;2023-04-24T05:03:17;30.43;;;10.83;;
20076;SDS011;12348;42.710;23.378;2023-04-24T05:05:45;49.90;;;12.00;;
20076;SDS011;12348;42.710;23.378;2023-04-24T05:08:12;36.37;;;11.63;;
20076;SDS011;12348;42.710;23.378;2023-04-24T05:10:39;36.20;;;10.87;;
20076;SDS011;12348;42.710;23.378;2023-04-24T05:13:06;15.50;;;9.00;;
20076;SDS011;12348;42.710;23.378;2023-04-24T05:15:32;12.87;;;8.60;;
20076;SDS011;12348;42.710;23.378;2023-04-24T05:17:59;22.47;;;10.67;;
20076;SDS011;12348;42.710;23.378;2023-04-24T05:20:26;20.20;;;8.53;;
20076;SDS011;12348;42.710;23.378;2023-04-24T05:22:55;17.43;;;8.90;;
20076;SDS011;12348;42.710;23.378;2023-04-24T05:25:21;14.30;;;8.20;;
20076;SDS011;12348;42.710;23.378;2023-04-24T05:27:48;14.73;;;8.47;;
20076;SDS011;12348;42.710;23.378;2023-04-24T05:30:15;14.73;;;8.60;;
20076;SDS011;12348;42.710;23.378;2023-04-24T05:32:41;10.47;;;7.00;;
20076;SDS011;12348;42.710;23.378;2023-04-24T05:35:08;16.83;;;8.97;;
20076;SDS011;12348;42.710;23.378;2023-04-24T05:37:35;15.37;;;7.03;;
20076;SDS011;12348;42.710;23.378;2023-04-24T05:40:04;13.17;;;7.30;;
20076;SDS011;12348;42.710;23.378;2023-04-24T05:42:31;13.07;;;7.40;;
20076;SDS011;12348;42.710;23.378;2023-04-24T05:44:58;14.13;;;7.20;;
20076;SDS011;12348;42.710;23.378;2023-04-24T05:47:24;16.87;;;6.70;;
20076;SDS011;12348;42.710;23.378;2023-04-24T05:49:52;13.07;;;7.13;;
20076;SDS011;12348;42.710;23.378;2023-04-24T05:52:19;10.77;;;6.73;;
20076;SDS011;12348;42.710;23.378;2023-04-24T05:54:46;12.90;;;6.63;;
20076;SDS011;12348;42.710;23.378;2023-04-24T05:57:14;8.93;;;5.60;;
20076;SDS011;12348;42.710;23.378;2023-04-24T05:59:40;12.20;;;7.20;;
20076;SDS011;12348;42.710;23.378;2023-04-24T06:02:07;12.00;;;7.23;;
20076;SDS011;12348;42.710;23.378;2023-04-24T06:04:34;12.57;;;7.80;;
20076;SDS011;12348;42.710;23.378;2023-04-24T06:07:01;9.27;;;7.47;;
20076;SDS011;12348;42.710;23.378;2023-04-24T06:09:28;15.87;;;9.70;;
20076;SDS011;12348;42.710;23.378;2023-04-24T06:11:55;12.27;;;6.87;;
20076;SDS011;12348;42.710;23.378;2023-04-24T06:14:23;13.00;;;6.30;;
20076;SDS011;12348;42.710;23.378;2023-04-24T06:16:51;12.63;;;6.20;;
20076;SDS011;12348;42.710;23.378;2023-04-24T06:19:18;12.73;;;6.10;;
20076;SDS011;12348;42.710;23.378;2023-04-24T06:21:44;10.37;;;6.43;;
20076;SDS011;12348;42.710;23.378;2023-04-24T06:24:13;13.57;;;6.83;;
20076;SDS011;12348;42.710;23.378;2023-04-24T06:26:41;11.77;;;6.20;;
20076;SDS011;12348;42.710;23.378;2023-04-24T06:29:08;8.67;;;6.10;;
20076;SDS011;12348;42.710;23.378;2023-04-24T06:31:36;13.63;;;7.17;;
20076;SDS011;12348;42.710;23.378;2023-04-24T06:34:03;7.37;;;5.27;;
20076;SDS011;12348;42.710;23.378;2023-04-24T06:36:29;7.07;;;5.53;;
20076;SDS011;12348;42.710;23.378;2023-04-24T06:38:57;12.00;;;6.70;;
20076;SDS011;12348;42.710;23.378;2023-04-24T06:41:24;11.03;;;6.57;;
20076;SDS011;12348;42.710;23.378;2023-04-24T06:43:51;7.60;;;6.73;;
20076;SDS011;12348;42.710;23.378;2023-04-24T06:46:18;8.13;;;6.40;;
20076;SDS011;12348;42.710;23.378;2023-04-24T06:48:48;13.30;;;7.67;;
20076;SDS011;12348;42.710;23.378;2023-04-24T06:51:15;13.33;;;8.33;;
20076;SDS011;12348;42.710;23.378;2023-04-24T06:53:43;12.60;;;7.53;;
20076;SDS011;12348;42.710;23.378;2023-04-24T06:56:10;13.80;;;7.47;;
20076;SDS011;12348;42.710;23.378;2023-04-24T06:58:37;18.43;;;9.17;;
20076;SDS011;12348;42.710;23.378;2023-04-24T07:01:03;15.47;;;7.77;;
20076;SDS011;12348;42.710;23.378;2023-04-24T07:03:30;14.80;;;7.83;;
20076;SDS011;12348;42.710;23.378;2023-04-24T07:05:58;12.83;;;7.87;;
20076;SDS011;12348;42.710;23.378;2023-04-24T07:08:25;16.37;;;6.90;;
20076;SDS011;12348;42.710;23.378;2023-04-24T07:10:52;15.10;;;7.00;;
20076;SDS011;12348;42.710;23.378;2023-04-24T07:13:18;10.43;;;6.63;;
20076;SDS011;12348;42.710;23.378;2023-04-24T07:15:45;12.43;;;7.73;;
20076;SDS011;12348;42.710;23.378;2023-04-24T07:18:14;12.90;;;8.27;;
20076;SDS011;12348;42.710;23.378;2023-04-24T07:20:40;11.80;;;7.30;;
20076;SDS011;12348;42.710;23.378;2023-04-24T07:23:08;12.47;;;6.90;;
20076;SDS011;12348;42.710;23.378;2023-04-24T07:25:35;9.07;;;6.73;;
20076;SDS011;12348;42.710;23.378;2023-04-24T07:28:03;15.57;;;8.00;;
20076;SDS011;12348;42.710;23.378;2023-04-24T07:30:30;12.20;;;6.90;;
20076;SDS011;12348;42.710;23.378;2023-04-24T07:32:58;15.67;;;7.47;;
20076;SDS011;12348;42.710;23.378;2023-04-24T07:35:25;14.27;;;8.10;;
20076;SDS011;12348;42.710;23.378;2023-04-24T07:37:52;10.63;;;6.40;;
20076;SDS011;12348;42.710;23.378;2023-04-24T07:40:20;15.83;;;6.80;;
20076;SDS011;12348;42.710;23.378;2023-04-24T07:42:47;10.97;;;6.07;;
20076;SDS011;12348;42.710;23.378;2023-04-24T07:45:14;8.13;;;5.10;;
20076;SDS011;12348;42.710;23.378;2023-04-24T07:47:41;14.33;;;5.57;;
20076;SDS011;12348;42.710;23.378;2023-04-24T07:50:10;8.07;;;5.93;;
20076;SDS011;12348;42.710;23.378;2023-04-24T07:52:37;6.73;;;5.37;;
20076;SDS011;12348;42.710;23.378;2023-04-24T07:55:04;12.90;;;9.23;;
20076;SDS011;12348;42.710;23.378;2023-04-24T07:57:33;7.03;;;4.53;;
20076;SDS011;12348;42.710;23.378;2023-04-24T08:00:01;8.67;;;5.87;;
20076;SDS011;12348;42.710;23.378;2023-04-24T08:02:28;6.53;;;5.33;;
20076;SDS011;12348;42.710;23.378;2023-04-24T08:04:55;9.50;;;6.03;;
20076;SDS011;12348;42.710;23.378;2023-04-24T08:07:22;8.37;;;4.97;;
20076;SDS011;12348;42.710;23.378;2023-04-24T08:09:49;10.90;;;5.10;;
20076;SDS011;12348;42.710;23.378;2023-04-24T08:12:16;7.60;;;4.50;;
20076;SDS011;12348;42.710;23.378;2023-04-24T08:14:44;7.57;;;4.27;;
20076;SDS011;12348;42.710;23.378;2023-04-24T08:17:11;6.47;;;5.03;;
20076;SDS011;12348;42.710;23.378;2023-04-24T08:19:39;10.50;;;5.17;;
20076;SDS011;12348;42.710;23.378;2023-04-24T08:22:08;14.37;;;5.47;;
20076;SDS011;12348;42.710;23.378;2023-04-24T08:24:34;8.33;;;5.23;;
20076;SDS011;12348;42.710;23.378;2023-04-24T08:27:01;9.13;;;5.53;;
20076;SDS011;12348;42.710;23.378;2023-04-24T08:29:28;7.07;;;4.77;;
20076;SDS011;12348;42.710;23.378;2023-04-24T08:31:56;6.57;;;4.53;;
20076;SDS011;12348;42.710;23.378;2023-04-24T08:34:23;8.70;;;5.47;;
20076;SDS011;12348;42.710;23.378;2023-04-24T08:36:50;9.97;;;5.43;;
20076;SDS011;12348;42.710;23.378;2023-04-24T08:39:16;7.93;;;4.63;;
20076;SDS011;12348;42.710;23.378;2023-04-24T08:41:44;10.10;;;4.73;;
20076;SDS011;12348;42.710;23.378;2023-04-24T08:44:11;11.73;;;4.50;;
20076;SDS011;12348;42.710;23.378;2023-04-24T08:46:41;8.10;;;4.17;;
20076;SDS011;12348;42.710;23.378;2023-04-24T08:49:11;13.97;;;4.67;;
20076;SDS011;12348;42.710;23.378;2023-04-24T08:51:41;4.97;;;4.00;;
20076;SDS011;12348;42.710;23.378;2023-04-24T08:54:08;11.20;;;6.73;;
20076;SDS011;12348;42.710;23.378;2023-04-24T08:56:35;8.83;;;4.00;;
20076;SDS011;12348;42.710;23.378;2023-04-24T08:59:04;7.80;;;4.37;;
20076;SDS011;12348;42.710;23.378;2023-04-24T09:01:32;7.03;;;4.60;;
20076;SDS011;12348;42.710;23.378;2023-04-24T09:04:01;7.40;;;4.27;;
20076;SDS011;12348;42.710;23.378;2023-04-24T09:06:31;7.27;;;3.93;;
20076;SDS011;12348;42.710;23.378;2023-04-24T09:08:59;9.07;;;3.53;;
20076;SDS011;12348;42.710;23.378;2023-04-24T09:11:29;7.50;;;3.60;;
20076;SDS011;12348;42.710;23.378;2023-04-24T09:13:56;7.80;;;3.80;;
20076;SDS011;12348;42.710;23.378;2023-04-24T09:16:24;8.40;;;3.67;;
20076;SDS011;12348;42.710;23.378;2023-04-24T09:18:52;6.80;;;4.20;;
20076;SDS011;12348;42.710;23.378;2023-04-24T09:21:20;5.27;;;3.70;;
20076;SDS011;12348;42.710;23.378;2023-04-24T09:23:49;6.20;;;4.30;;
20076;SDS011;12348;42.710;23.378;2023-04-24T09:26:24;10.83;;;4.80;;
20076;SDS011;12348;42.710;23.378;2023-04-24T09:28:50;8.20;;;3.60;;
20076;SDS011;12348;42.710;23.378;2023-04-24T09:31:18;9.33;;;3.63;;
20076;SDS011;12348;42.710;23.378;2023-04-24T09:33:53;10.73;;;4.13;;
20076;SDS011;12348;42.710;23.378;2023-04-24T09:36:26;8.47;;;4.80;;
20076;SDS011;12348;42.710;23.378;2023-04-24T09:38:58;4.23;;;3.73;;
20076;SDS011;12348;42.710;23.378;2023-04-24T09:41:26;9.00;;;5.13;;
20076;SDS011;12348;42.710;23.378;2023-04-24T09:43:53;6.70;;;4.10;;
20076;SDS011;12348;42.710;23.378;2023-04-24T09:46:21;6.57;;;3.60;;
20076;SDS011;12348;42.710;23.378;2023-04-24T09:48:55;20.23;;;5.93;;
20076;SDS011;12348;42.710;23.378;2023-04-24T09:51:32;10.60;;;5.77;;
20076;SDS011;12348;42.710;23.378;2023-04-24T09:54:02;13.87;;;5.73;;
20076;SDS011;12348;42.710;23.378;2023-04-24T09:56:32;8.70;;;5.00;;
20076;SDS011;12348;42.710;23.378;2023-04-24T09:59:06;5.43;;;4.20;;
20076;SDS011;12348;42.710;23.378;2023-04-24T10:01:34;7.30;;;4.00;;
20076;SDS011;12348;42.710;23.378;2023-04-24T10:04:01;10.67;;;4.13;;
20076;SDS011;12348;42.710;23.378;2023-04-24T10:06:32;4.70;;;3.80;;
20076;SDS011;12348;42.710;23.378;2023-04-24T10:09:02;4.73;;;3.93;;
20076;SDS011;12348;42.710;23.378;2023-04-24T10:11:30;7.17;;;3.83;;
20076;SDS011;12348;42.710;23.378;2023-04-24T10:13:56;5.10;;;3.73;;
20076;SDS011;12348;42.710;23.378;2023-04-24T10:16:25;6.70;;;3.93;;
20076;SDS011;12348;42.710;23.378;2023-04-24T10:18:53;6.33;;;3.67;;
20076;SDS011;12348;42.710;23.378;2023-04-24T10:21:21;5.40;;;3.90;;
20076;SDS011;12348;42.710;23.378;2023-04-24T10:23:49;11.67;;;4.07;;
20076;SDS011;12348;42.710;23.378;2023-04-24T10:26:18;5.60;;;3.70;;
20076;SDS011;12348;42.710;23.378;2023-04-24T10:28:46;5.30;;;3.70;;
20076;SDS011;12348;42.710;23.378;2023-04-24T10:31:14;5.53;;;3.83;;
20076;SDS011;12348;42.710;23.378;2023-04-24T10:33:41;7.13;;;3.80;;
20076;SDS011;12348;42.710;23.378;2023-04-24T10:36:09;4.47;;;3.17;;
20076;SDS011;12348;42.710;23.378;2023-04-24T10:38:38;7.90;;;4.17;;
20076;SDS011;12348;42.710;23.378;2023-04-24T10:41:08;6.93;;;4.30;;
20076;SDS011;12348;42.710;23.378;2023-04-24T10:43:42;8.07;;;4.33;;
20076;SDS011;12348;42.710;23.378;2023-04-24T10:46:09;6.70;;;4.40;;
20076;SDS011;12348;42.710;23.378;2023-04-24T10:48:37;5.67;;;3.93;;
20076;SDS011;12348;42.710;23.378;2023-04-24T10:51:10;5.73;;;4.10;;
20076;SDS011;12348;42.710;23.378;2023-04-24T10:53:39;8.97;;;4.20;;
20076;SDS011;12348;42.710;23.378;2023-04-24T10:56:06;8.90;;;4.53;;
20076;SDS011;12348;42.710;23.378;2023-04-24T10:58:38;6.60;;;3.97;;
20076;SDS011;12348;42.710;23.378;2023-04-24T11:01:11;4.87;;;3.33;;
20076;SDS011;12348;42.710;23.378;2023-04-24T11:03:53;6.93;;;3.83;;
20076;SDS011;12348;42.710;23.378;2023-04-24T11:06:28;12.47;;;5.80;;
20076;SDS011;12348;42.710;23.378;2023-04-24T11:08:59;4.53;;;3.50;;
20076;SDS011;12348;42.710;23.378;2023-04-24T11:11:30;13.40;;;4.50;;
20076;SDS011;12348;42.710;23.378;2023-04-24T11:14:04;7.77;;;4.83;;
20076;SDS011;12348;42.710;23.378;2023-04-24T11:16:34;10.20;;;5.00;;
20076;SDS011;12348;42.710;23.378;2023-04-24T11:19:04;6.90;;;5.20;;
20076;SDS011;12348;42.710;23.378;2023-04-24T11:21:38;6.30;;;3.83;;
20076;SDS011;12348;42.710;23.378;2023-04-24T11:26:54;7.40;;;4.50;;
20076;SDS011;12348;42.710;23.378;2023-04-24T11:29:21;9.37;;;5.30;;
20076;SDS011;12348;42.710;23.378;2023-04-24T11:31:50;13.87;;;7.53;;
20076;SDS011;12348;42.710;23.378;2023-04-24T11:34:17;6.40;;;5.17;;
20076;SDS011;12348;42.710;23.378;2023-04-24T11:36:45;7.03;;;4.50;;
20076;SDS011;12348;42.710;23.378;2023-04-24T11:39:13;7.37;;;4.77;;
20076;SDS011;12348;42.710;23.378;2023-04-24T11:41:40;13.23;;;5.20;;
20076;SDS011;12348;42.710;23.378;2023-04-24T11:44:07;12.57;;;5.10;;
20076;SDS011;12348;42.710;23.378;2023-04-24T11:46:35;8.03;;;5.17;;
20076;SDS011;12348;42.710;23.378;2023-04-24T11:49:04;7.83;;;5.80;;
20076;SDS011;12348;42.710;23.378;2023-04-24T11:51:32;8.73;;;6.23;;
20076;SDS011;12348;42.710;23.378;2023-04-24T11:54:00;21.63;;;9.83;;
20076;SDS011;12348;42.710;23.378;2023-04-24T11:56:27;11.27;;;6.67;;
20076;SDS011;12348;42.710;23.378;2023-04-24T11:58:53;5.63;;;3.17;;
20076;SDS011;12348;42.710;23.378;2023-04-24T12:01:20;5.63;;;3.70;;
20076;SDS011;12348;42.710;23.378;2023-04-24T12:03:48;5.63;;;3.70;;
20076;SDS011;12348;42.710;23.378;2023-04-24T12:06:19;4.27;;;2.43;;
20076;SDS011;12348;42.710;23.378;2023-04-24T12:08:46;4.40;;;3.80;;
20076;SDS011;12348;42.710;23.378;2023-04-24T12:11:14;8.60;;;3.80;;
20076;SDS011;12348;42.710;23.378;2023-04-24T12:13:43;6.30;;;3.47;;
20076;SDS011;12348;42.710;23.378;2023-04-24T12:16:11;5.67;;;3.27;;
20076;SDS011;12348;42.710;23.378;2023-04-24T12:18:41;6.60;;;3.67;;
20076;SDS011;12348;42.710;23.378;2023-04-24T12:21:15;5.30;;;3.60;;
20076;SDS011;12348;42.710;23.378;2023-04-24T12:23:47;6.70;;;3.13;;
20076;SDS011;12348;42.710;23.378;2023-04-24T12:26:16;6.10;;;4.23;;
20076;SDS011;12348;42.710;23.378;2023-04-24T12:28:46;5.93;;;3.87;;
20076;SDS011;12348;42.710;23.378;2023-04-24T12:31:14;10.10;;;4.20;;
20076;SDS011;12348;42.710;23.378;2023-04-24T12:33:41;4.37;;;3.93;;
20076;SDS011;12348;42.710;23.378;2023-04-24T12:36:09;14.23;;;4.90;;
20076;SDS011;12348;42.710;23.378;2023-04-24T12:38:39;5.37;;;4.60;;
20076;SDS011;12348;42.710;23.378;2023-04-24T12:41:10;5.60;;;3.10;;
20076;SDS011;12348;42.710;23.378;2023-04-24T12:43:38;3.33;;;2.63;;
20076;SDS011;12348;42.710;23.378;2023-04-24T12:46:17;7.97;;;3.80;;
20076;SDS011;12348;42.710;23.378;2023-04-24T12:48:44;5.03;;;3.20;;
20076;SDS011;12348;42.710;23.378;2023-04-24T12:51:11;4.37;;;2.60;;
20076;SDS011;12348;42.710;23.378;2023-04-24T12:53:39;7.63;;;3.60;;
20076;SDS011;12348;42.710;23.378;2023-04-24T12:56:05;3.30;;;2.50;;
20076;SDS011;12348;42.710;23.378;2023-04-24T12:58:32;7.40;;;3.23;;
20076;SDS011;12348;42.710;23.378;2023-04-24T13:00:59;9.80;;;3.57;;
20076;SDS011;12348;42.710;23.378;2023-04-24T13:03:26;3.73;;;2.83;;
20076;SDS011;12348;42.710;23.378;2023-04-24T13:05:53;5.60;;;3.77;;
20076;SDS011;12348;42.710;23.378;2023-04-24T13:08:20;3.50;;;2.57;;
20076;SDS011;12348;42.710;23.378;2023-04-24T13:10:48;9.97;;;3.73;;
20076;SDS011;12348;42.710;23.378;2023-04-24T13:13:16;4.17;;;3.57;;
20076;SDS011;12348;42.710;23.378;2023-04-24T13:15:42;5.40;;;3.80;;
20076;SDS011;12348;42.710;23.378;2023-04-24T13:18:10;4.37;;;3.50;;
20076;SDS011;12348;42.710;23.378;2023-04-24T13:20:36;7.40;;;4.00;;
20076;SDS011;12348;42.710;23.378;2023-04-24T13:23:03;6.07;;;4.37;;
20076;SDS011;12348;42.710;23.378;2023-04-24T13:25:34;4.83;;;3.70;;
20076;SDS011;12348;42.710;23.378;2023-04-24T13:28:03;7.50;;;4.13;;
20076;SDS011;12348;42.710;23.378;2023-04-24T13:30:30;6.77;;;4.00;;
20076;SDS011;12348;42.710;23.378;2023-04-24T13:32:57;4.80;;;3.50;;
20076;SDS011;12348;42.710;23.378;2023-04-24T13:35:24;5.33;;;3.50;;
20076;SDS011;12348;42.710;23.378;2023-04-24T13:37:51;5.97;;;3.83;;
20076;SDS011;12348;42.710;23.378;2023-04-24T13:40:18;4.87;;;3.03;;
20076;SDS011;12348;42.710;23.378;2023-04-24T13:42:44;6.87;;;3.83;;
20076;SDS011;12348;42.710;23.378;2023-04-24T13:45:13;3.23;;;2.67;;
20076;SDS011;12348;42.710;23.378;2023-04-24T13:47:39;3.30;;;2.43;;
20076;SDS011;12348;42.710;23.378;2023-04-24T13:50:07;5.80;;;2.90;;
20076;SDS011;12348;42.710;23.378;2023-04-24T13:52:34;3.70;;;2.87;;
20076;SDS011;12348;42.710;23.378;2023-04-24T13:55:01;5.67;;;3.40;;
20076;SDS011;12348;42.710;23.378;2023-04-24T13:57:28;6.63;;;3.30;;
20076;SDS011;12348;42.710;23.378;2023-04-24T13:59:56;3.73;;;2.70;;
20076;SDS011;12348;42.710;23.378;2023-04-24T14:02:28;4.60;;;3.20;;
20076;SDS011;12348;42.710;23.378;2023-04-24T14:04:55;3.30;;;3.00;;
20076;SDS011;12348;42.710;23.378;2023-04-24T14:07:22;5.03;;;3.27;;
20076;SDS011;12348;42.710;23.378;2023-04-24T14:09:48;3.93;;;3.30;;
20076;SDS011;12348;42.710;23.378;2023-04-24T14:12:16;5.30;;;3.53;;
20076;SDS011;12348;42.710;23.378;2023-04-24T14:14:44;3.97;;;2.70;;
20076;SDS011;12348;42.710;23.378;2023-04-24T14:17:13;4.63;;;3.40;;
20076;SDS011;12348;42.710;23.378;2023-04-24T14:19:41;5.07;;;3.10;;
20076;SDS011;12348;42.710;23.378;2023-04-24T14:22:08;3.93;;;3.17;;
20076;SDS011;12348;42.710;23.378;2023-04-24T14:24:36;6.03;;;3.07;;
20076;SDS011;12348;42.710;23.378;2023-04-24T14:27:03;5.80;;;3.80;;
20076;SDS011;12348;42.710;23.378;2023-04-24T14:29:29;5.50;;;3.10;;
20076;SDS011;12348;42.710;23.378;2023-04-24T14:31:56;6.73;;;3.73;;
20076;SDS011;12348;42.710;23.378;2023-04-24T14:34:23;7.33;;;3.50;;